createdAt,value
2022-08-14T00:00:49.565Z,23.00
2022-08-14T00:03:29.500Z,24.53
2022-08-14T00:06:00.404Z,25.47
2022-08-14T00:08:45.140Z,26.83
2022-08-14T00:11:15.589Z,25.03
2022-08-14T00:13:52.872Z,23.87
2022-08-14T00:16:41.611Z,24.90
2022-08-14T00:19:19.258Z,25.87
2022-08-14T00:21:50.222Z,23.83
2022-08-14T00:24:28.280Z,24.77
2022-08-14T00:27:02.072Z,25.83
2022-08-14T00:29:33.157Z,25.10
2022-08-14T00:32:51.918Z,24.10
2022-08-14T00:35:02.272Z,24.83
2022-08-14T00:37:32.579Z,24.10
2022-08-14T00:40:02.327Z,24.57
2022-08-14T00:42:54.894Z,24.27
2022-08-14T00:45:25.170Z,25.00
2022-08-14T00:47:53.775Z,23.77
2022-08-14T00:50:23.475Z,24.60
2022-08-14T00:52:57.449Z,26.70
2022-08-14T00:55:27.899Z,27.47
2022-08-14T00:58:18.091Z,25.30
2022-08-14T01:00:57.289Z,24.40
2022-08-14T01:03:29.176Z,23.33
2022-08-14T01:06:00.687Z,25.23
2022-08-14T01:08:57.894Z,24.17
2022-08-14T01:11:21.666Z,23.90
2022-08-14T01:13:56.225Z,24.13
2022-08-14T01:16:31.469Z,25.80
2022-08-14T01:19:19.622Z,24.67
2022-08-14T01:21:52.671Z,26.53
2022-08-14T01:24:34.142Z,25.13
2022-08-14T01:27:04.872Z,25.07
2022-08-14T01:29:58.610Z,24.50
2022-08-14T01:32:26.615Z,23.90
2022-08-14T01:35:20.412Z,25.83
2022-08-14T01:37:56.071Z,24.93
2022-08-14T01:40:33.025Z,23.93
2022-08-14T01:43:02.908Z,23.63
2022-08-14T01:45:40.815Z,24.90
2022-08-14T01:48:13.618Z,25.00
2022-08-14T01:50:44.194Z,22.30
2022-08-14T01:53:15.531Z,22.97
2022-08-14T01:55:47.573Z,24.00
2022-08-14T01:58:28.584Z,22.47
2022-08-14T02:01:00.565Z,23.57
2022-08-14T02:03:31.399Z,24.63
2022-08-14T02:06:32.336Z,24.57
2022-08-14T02:08:55.570Z,24.50
2022-08-14T02:11:27.033Z,24.50
2022-08-14T02:14:07.104Z,25.60
2022-08-14T02:16:39.501Z,26.20
2022-08-14T02:19:11.593Z,24.53
2022-08-14T02:21:47.033Z,24.57
2022-08-14T02:24:39.207Z,24.77
2022-08-14T02:28:23.244Z,26.03
2022-08-14T02:30:02.766Z,29.73
2022-08-14T02:32:36.432Z,24.80
2022-08-14T02:35:19.244Z,26.17
2022-08-14T02:37:52.694Z,23.23
2022-08-14T02:40:32.055Z,25.47
2022-08-14T02:43:03.756Z,24.83
2022-08-14T02:45:38.700Z,25.20
2022-08-14T02:49:01.097Z,24.53
2022-08-14T02:51:07.188Z,23.70
2022-08-14T02:53:42.277Z,23.93
2022-08-14T02:56:30.710Z,22.53
2022-08-14T02:59:06.455Z,23.83
2022-08-14T03:01:43.749Z,24.77
2022-08-14T03:04:20.627Z,25.20
2022-08-14T03:06:57.517Z,25.17
2022-08-14T03:10:27.040Z,24.97
2022-08-14T03:12:31.628Z,24.30
2022-08-14T03:15:16.418Z,29.13
2022-08-14T03:17:57.511Z,25.67
2022-08-14T03:20:28.333Z,27.37
2022-08-14T03:23:00.069Z,23.87
2022-08-14T03:25:34.342Z,26.70
2022-08-14T03:28:14.329Z,24.87
2022-08-14T03:31:01.640Z,23.40
2022-08-14T03:33:37.336Z,23.70
2022-08-14T03:37:37.299Z,25.30
2022-08-14T03:39:12.414Z,24.20
2022-08-14T03:41:46.641Z,23.73
2022-08-14T03:45:27.105Z,24.27
2022-08-14T03:47:05.863Z,24.57
2022-08-14T03:49:34.499Z,26.43
2022-08-14T03:52:17.758Z,24.33
2022-08-14T03:54:54.695Z,25.70
2022-08-14T03:57:23.926Z,23.73
2022-08-14T03:59:53.885Z,25.30
2022-08-14T04:02:32.544Z,23.77
2022-08-14T04:05:11.968Z,24.83
2022-08-14T04:07:49.760Z,22.03
2022-08-14T04:10:32.009Z,26.20
2022-08-14T04:13:04.008Z,26.07
2022-08-14T04:15:56.208Z,30.57
2022-08-14T04:18:23.759Z,29.03
2022-08-14T04:20:55.203Z,25.83
2022-08-14T04:23:29.775Z,26.50
2022-08-14T04:26:03.219Z,27.10
2022-08-14T04:29:06.717Z,23.63
2022-08-14T04:32:57.834Z,29.60
2022-08-14T04:34:17.237Z,26.93
2022-08-14T04:37:07.192Z,27.63
2022-08-14T04:39:57.865Z,24.97
2022-08-14T04:42:47.605Z,24.27
2022-08-14T04:45:21.711Z,25.83
2022-08-14T04:48:39.645Z,26.03
2022-08-14T04:51:05.666Z,25.70
2022-08-14T04:53:42.903Z,23.07
2022-08-14T04:56:31.428Z,24.20
2022-08-14T04:59:09.517Z,30.07
2022-08-14T05:01:41.777Z,42.63
2022-08-14T05:04:19.731Z,26.77
2022-08-14T05:06:53.504Z,24.67
2022-08-14T05:09:23.974Z,24.93
2022-08-14T05:11:53.097Z,24.63
2022-08-14T05:14:46.285Z,25.00
2022-08-14T05:17:12.186Z,23.33
2022-08-14T05:19:44.756Z,26.43
2022-08-14T05:22:31.021Z,24.50
2022-08-14T05:24:59.951Z,26.00
2022-08-14T05:27:31.279Z,26.40
2022-08-14T05:30:01.240Z,31.53
2022-08-14T05:32:29.943Z,26.53
2022-08-14T05:35:00.957Z,25.30
2022-08-14T05:37:31.051Z,26.70
2022-08-14T05:40:02.089Z,26.53
2022-08-14T05:42:33.993Z,25.63
2022-08-14T05:45:05.161Z,32.53
2022-08-14T05:47:41.238Z,27.07
2022-08-14T05:50:17.337Z,28.07
2022-08-14T05:52:48.749Z,27.27
2022-08-14T05:55:22.633Z,32.17
2022-08-14T05:57:54.181Z,28.67
2022-08-14T06:00:29.293Z,32.00
2022-08-14T06:03:04.148Z,30.57
2022-08-14T06:05:38.878Z,33.00
2022-08-14T06:08:31.162Z,27.27
2022-08-14T06:11:06.609Z,36.50
2022-08-14T06:13:44.547Z,28.70
2022-08-14T06:16:17.919Z,25.17
2022-08-14T06:18:48.670Z,27.47
2022-08-14T06:21:23.660Z,25.87
2022-08-14T06:23:52.773Z,28.63
2022-08-14T06:26:22.450Z,27.80
2022-08-14T06:28:52.817Z,26.97
2022-08-14T06:31:22.714Z,25.97
2022-08-14T06:35:03.055Z,28.27
2022-08-14T06:36:41.578Z,27.90
2022-08-14T06:39:10.910Z,29.77
2022-08-14T06:41:57.592Z,30.43
2022-08-14T06:44:32.381Z,31.40
2022-08-14T06:47:03.337Z,27.50
2022-08-14T06:49:43.481Z,26.87
2022-08-14T06:52:16.499Z,27.63
2022-08-14T06:54:45.545Z,29.57
2022-08-14T06:57:14.531Z,28.60
2022-08-14T06:59:43.518Z,28.17
2022-08-14T07:02:30.258Z,25.30
2022-08-14T07:05:20.816Z,29.67
2022-08-14T07:07:51.952Z,29.80
2022-08-14T07:10:22.120Z,29.77
2022-08-14T07:13:01.368Z,28.23
2022-08-14T07:15:32.471Z,27.53
2022-08-14T07:18:03.650Z,28.20
2022-08-14T07:20:33.791Z,27.17
2022-08-14T07:23:10.890Z,28.50
2022-08-14T07:25:48.791Z,28.07
2022-08-14T07:28:23.682Z,28.10
2022-08-14T07:30:56.324Z,27.63
2022-08-14T07:33:29.947Z,27.77
2022-08-14T07:36:01.504Z,29.40
2022-08-14T07:38:37.662Z,29.33
2022-08-14T07:41:11.782Z,27.87
2022-08-14T07:43:47.408Z,28.37
2022-08-14T07:46:28.634Z,29.20
2022-08-14T07:48:58.551Z,29.83
2022-08-14T07:51:34.389Z,28.00
2022-08-14T07:54:11.419Z,28.80
2022-08-14T07:56:47.715Z,28.50
2022-08-14T07:59:20.715Z,26.90
2022-08-14T08:02:18.643Z,28.70
2022-08-14T08:04:54.055Z,29.07
2022-08-14T08:07:24.153Z,28.17
2022-08-14T08:09:58.129Z,29.83
2022-08-14T08:12:31.136Z,30.70
2022-08-14T08:15:07.437Z,27.83
2022-08-14T08:17:53.571Z,30.57
2022-08-14T08:20:29.362Z,29.23
2022-08-14T08:23:00.585Z,29.53
2022-08-14T08:25:39.640Z,29.07
2022-08-14T08:28:19.907Z,29.43
2022-08-14T08:30:56.321Z,29.07
2022-08-14T08:33:32.293Z,30.20
2022-08-14T08:36:08.474Z,30.13
2022-08-14T08:39:18.417Z,30.03
2022-08-14T08:41:43.313Z,31.10
2022-08-14T08:44:17.329Z,29.43
2022-08-14T08:47:03.487Z,29.47
2022-08-14T08:49:43.072Z,30.40
2022-08-14T08:52:25.457Z,28.10
2022-08-14T08:55:00.963Z,30.20
2022-08-14T08:57:37.612Z,29.80
2022-08-14T09:00:25.867Z,30.17
2022-08-14T09:03:01.959Z,28.63
2022-08-14T09:05:32.803Z,29.30
2022-08-14T09:08:30.578Z,30.83
2022-08-14T09:11:18.890Z,29.23
2022-08-14T09:13:53.609Z,28.50
2022-08-14T09:16:24.879Z,29.43
2022-08-14T09:18:54.920Z,30.50
2022-08-14T09:21:31.751Z,30.30
2022-08-14T09:24:28.529Z,31.37
2022-08-14T09:26:50.739Z,29.47
2022-08-14T09:29:23.184Z,31.57
2022-08-14T09:31:57.659Z,29.57
2022-08-14T09:34:57.985Z,31.67
2022-08-14T09:37:38.495Z,30.20
2022-08-14T09:40:20.910Z,30.00
2022-08-14T09:43:00.865Z,28.83
2022-08-14T09:45:39.917Z,30.20
2022-08-14T09:48:17.069Z,29.83
2022-08-14T09:50:48.125Z,30.70
2022-08-14T09:54:17.920Z,30.10
2022-08-14T09:56:30.189Z,30.00
2022-08-14T09:59:15.250Z,30.53
2022-08-14T10:01:53.150Z,29.80
2022-08-14T10:04:35.681Z,30.50
2022-08-14T10:07:08.292Z,29.87
2022-08-14T10:10:00.247Z,30.40
2022-08-14T10:12:45.161Z,30.57
2022-08-14T10:15:19.779Z,31.13
2022-08-14T10:17:50.639Z,29.70
2022-08-14T10:20:40.726Z,29.80
2022-08-14T10:23:16.285Z,29.50
2022-08-14T10:25:50.571Z,29.07
2022-08-14T10:29:03.494Z,29.80
2022-08-14T10:31:25.736Z,30.83
2022-08-14T10:34:13.418Z,31.33
2022-08-14T10:36:47.926Z,28.77
2022-08-14T10:39:21.110Z,31.33
2022-08-14T10:41:53.967Z,29.57
2022-08-14T10:44:29.885Z,29.33
2022-08-14T10:47:40.378Z,29.57
2022-08-14T10:50:02.282Z,30.07
2022-08-14T10:52:35.279Z,29.70
2022-08-14T10:55:09.192Z,30.63
2022-08-14T10:57:52.747Z,30.23
2022-08-14T11:00:29.861Z,31.85
2022-08-14T11:03:07.928Z,31.00
2022-08-14T11:05:43.215Z,29.15
2022-08-14T11:08:13.844Z,29.85
2022-08-14T11:10:47.307Z,29.63
2022-08-14T11:13:21.307Z,29.92
2022-08-14T11:15:53.580Z,29.90
2022-08-14T11:18:30.302Z,30.17
2022-08-14T11:21:02.737Z,30.15
2022-08-14T11:23:38.497Z,30.70
2022-08-14T11:26:10.306Z,29.88
2022-08-14T11:28:48.169Z,29.73
2022-08-14T11:31:22.169Z,29.27
2022-08-14T11:33:57.829Z,29.48
2022-08-14T11:36:57.212Z,30.55
2022-08-14T11:39:23.264Z,29.08
2022-08-14T11:42:55.541Z,30.73
2022-08-14T11:44:56.679Z,29.13
2022-08-14T11:47:35.512Z,30.52
2022-08-14T11:50:33.623Z,31.10
2022-08-14T11:53:08.558Z,31.35
2022-08-14T11:55:39.854Z,29.20
2022-08-14T11:58:11.601Z,32.00
2022-08-14T12:00:52.617Z,30.98
2022-08-14T12:03:37.606Z,29.60
2022-08-14T12:06:28.721Z,30.75
2022-08-14T12:09:02.045Z,30.52
2022-08-14T12:11:43.053Z,30.75
2022-08-14T12:14:30.016Z,28.55
2022-08-14T12:17:01.968Z,29.42
2022-08-14T12:19:33.640Z,30.33
2022-08-14T12:22:04.164Z,28.33
2022-08-14T12:24:40.286Z,29.92
2022-08-14T12:27:09.689Z,30.40
2022-08-14T12:29:40.005Z,29.35
2022-08-14T12:32:12.725Z,29.45
2022-08-14T12:34:45.044Z,30.42
2022-08-14T12:37:14.043Z,29.75
2022-08-14T12:39:44.455Z,28.20
2022-08-14T12:42:34.402Z,28.55
2022-08-14T12:45:04.308Z,32.13
2022-08-14T12:47:33.054Z,28.42
2022-08-14T12:50:02.476Z,29.58
2022-08-14T12:52:44.591Z,28.83
2022-08-14T12:55:32.775Z,29.10
2022-08-14T12:58:35.432Z,29.38
2022-08-14T13:01:17.230Z,30.40
2022-08-14T13:03:51.821Z,29.52
2022-08-14T13:06:25.068Z,30.98
2022-08-14T13:09:00.081Z,28.77
2022-08-14T13:11:40.930Z,30.73
2022-08-14T13:14:17.022Z,30.02
2022-08-14T13:16:50.430Z,27.35
2022-08-14T13:19:20.803Z,28.80
2022-08-14T13:22:05.634Z,28.67
2022-08-14T13:24:40.067Z,29.67
2022-08-14T13:27:12.427Z,31.33
2022-08-14T13:29:46.619Z,29.73
2022-08-14T13:32:16.491Z,29.85
2022-08-14T13:34:48.663Z,29.63
2022-08-14T13:37:18.611Z,29.63
2022-08-14T13:39:56.864Z,28.17
2022-08-14T13:42:30.130Z,29.67
2022-08-14T13:45:02.529Z,27.67
2022-08-14T13:47:33.526Z,28.55
2022-08-14T13:50:04.640Z,30.50
2022-08-14T13:52:59.498Z,29.88
2022-08-14T13:55:31.004Z,29.30
2022-08-14T13:58:04.283Z,27.80
2022-08-14T14:00:52.870Z,29.55
2022-08-14T14:03:23.644Z,28.88
2022-08-14T14:05:54.971Z,27.88
2022-08-14T14:08:43.330Z,29.00
2022-08-14T14:11:16.033Z,29.30
2022-08-14T14:13:47.059Z,29.70
2022-08-14T14:16:25.223Z,29.42
2022-08-14T14:19:09.398Z,27.30
2022-08-14T14:21:40.377Z,29.95
2022-08-14T14:24:15.138Z,30.10
2022-08-14T14:26:47.892Z,28.40
2022-08-14T14:29:25.933Z,29.85
2022-08-14T14:31:55.265Z,29.08
2022-08-14T14:34:30.344Z,30.65
2022-08-14T14:37:03.117Z,30.55
2022-08-14T14:39:38.214Z,30.83
2022-08-14T14:42:32.294Z,30.17
2022-08-14T14:45:07.671Z,30.77
2022-08-14T14:47:38.038Z,30.23
2022-08-14T14:50:11.141Z,30.98
2022-08-14T14:52:42.370Z,28.88
2022-08-14T14:55:13.726Z,29.80
2022-08-14T14:57:52.022Z,29.35
2022-08-14T15:00:24.966Z,29.13
2022-08-14T15:02:59.979Z,29.10
2022-08-14T15:05:28.803Z,28.85
2022-08-14T15:07:58.884Z,31.27
2022-08-14T15:10:31.724Z,31.10
2022-08-14T15:13:06.729Z,29.98
2022-08-14T15:15:37.876Z,30.50
2022-08-14T15:18:36.320Z,29.15
2022-08-14T15:20:58.190Z,30.67
2022-08-14T15:23:44.473Z,29.10
2022-08-14T15:26:31.360Z,30.88
2022-08-14T15:29:05.632Z,30.45
2022-08-14T15:31:37.460Z,31.73
2022-08-14T15:34:44.089Z,30.45
2022-08-14T15:37:04.739Z,31.10
2022-08-14T15:39:33.581Z,29.42
2022-08-14T15:42:16.029Z,31.95
2022-08-14T15:44:57.880Z,28.23
2022-08-14T15:47:30.837Z,30.40
2022-08-14T15:50:01.442Z,29.48
2022-08-14T15:52:43.035Z,30.73
2022-08-14T15:55:15.798Z,30.90
2022-08-14T15:58:02.087Z,29.13
2022-08-14T16:01:04.101Z,30.73
2022-08-14T16:03:42.261Z,28.08
2022-08-14T16:06:15.690Z,29.20
2022-08-14T16:08:50.180Z,27.63
2022-08-14T16:11:22.917Z,28.58
2022-08-14T16:13:52.605Z,29.85
2022-08-14T16:16:34.690Z,29.35
2022-08-14T16:19:21.247Z,29.85
2022-08-14T16:22:01.426Z,29.50
2022-08-14T16:24:59.577Z,27.63
2022-08-14T16:27:37.242Z,29.63
2022-08-14T16:30:24.406Z,30.27
2022-08-14T16:32:56.268Z,29.92
2022-08-14T16:35:43.386Z,31.92
2022-08-14T16:38:44.588Z,29.45
2022-08-14T16:41:26.486Z,29.83
2022-08-14T16:43:59.009Z,28.27
2022-08-14T16:46:31.651Z,29.40
2022-08-14T16:49:02.365Z,27.77
2022-08-14T16:51:34.875Z,30.10
2022-08-14T16:54:10.627Z,29.05
2022-08-14T16:56:57.285Z,30.52
2022-08-14T16:59:30.485Z,27.88
2022-08-14T17:02:18.910Z,29.38
2022-08-14T17:04:49.191Z,29.83
2022-08-14T17:07:19.888Z,29.17
2022-08-14T17:09:50.132Z,28.77
2022-08-14T17:12:33.352Z,30.60
2022-08-14T17:15:10.140Z,29.00
2022-08-14T17:17:57.934Z,30.25
2022-08-14T17:20:54.836Z,31.25
2022-08-14T17:23:18.598Z,29.25
2022-08-14T17:25:51.031Z,27.60
2022-08-14T17:28:52.073Z,30.88
2022-08-14T17:31:12.748Z,28.05
2022-08-14T17:33:44.741Z,28.60
2022-08-14T17:36:22.968Z,28.63
2022-08-14T17:39:07.235Z,27.08
2022-08-14T17:41:43.708Z,28.40
2022-08-14T17:44:34.245Z,28.98
2022-08-14T17:47:14.677Z,27.77
2022-08-14T17:49:51.893Z,27.85
2022-08-14T17:52:36.473Z,30.33
2022-08-14T17:56:03.213Z,30.77
2022-08-14T17:58:20.738Z,28.77
2022-08-14T18:00:52.344Z,29.48
2022-08-14T18:03:50.534Z,29.02
2022-08-14T18:06:40.177Z,29.13
2022-08-14T18:09:01.560Z,29.75
2022-08-14T18:11:45.815Z,30.08
2022-08-14T18:14:31.675Z,29.50
2022-08-14T18:17:03.025Z,29.67
2022-08-14T18:19:35.189Z,28.42
2022-08-14T18:22:30.884Z,29.63
2022-08-14T18:24:57.497Z,30.10
2022-08-14T18:27:36.116Z,30.13
2022-08-14T18:30:33.238Z,28.93
2022-08-14T18:32:55.691Z,33.17
2022-08-14T18:35:46.113Z,30.67
2022-08-14T18:38:59.858Z,31.90
2022-08-14T18:41:36.847Z,31.77
2022-08-14T18:44:10.582Z,30.93
2022-08-14T18:47:17.415Z,31.83
2022-08-14T18:50:27.734Z,30.67
2022-08-14T18:53:07.346Z,31.07
2022-08-14T18:55:53.887Z,30.07
2022-08-14T18:58:34.349Z,30.13
2022-08-14T19:01:06.210Z,30.13
2022-08-14T19:03:57.320Z,28.87
2022-08-14T19:06:56.562Z,28.83
2022-08-14T19:09:57.897Z,30.73
2022-08-14T19:13:12.363Z,31.47
2022-08-14T19:15:43.927Z,33.07
2022-08-14T19:18:27.863Z,32.97
2022-08-14T19:20:59.510Z,28.73
2022-08-14T19:23:43.982Z,30.07
2022-08-14T19:26:35.637Z,28.97
2022-08-14T19:29:23.830Z,29.37
2022-08-14T19:31:55.387Z,28.17
2022-08-14T19:34:39.544Z,30.10
2022-08-14T19:37:10.361Z,28.60
2022-08-14T19:39:54.278Z,28.43
2022-08-14T19:42:28.440Z,29.87
2022-08-14T19:44:59.919Z,29.00
2022-08-14T19:47:38.730Z,30.63
2022-08-14T19:50:39.039Z,31.83
2022-08-14T19:53:17.173Z,31.67
2022-08-14T19:55:59.755Z,30.50
2022-08-14T19:58:54.431Z,34.97
2022-08-14T20:01:36.440Z,34.57
2022-08-14T20:04:22.833Z,31.07
2022-08-14T20:07:00.234Z,30.17
2022-08-14T20:11:08.262Z,33.50
2022-08-14T20:12:29.065Z,30.23
2022-08-14T20:15:08.647Z,28.53
2022-08-14T20:17:40.330Z,30.20
2022-08-14T20:20:20.950Z,30.17
2022-08-14T20:23:11.498Z,29.33
2022-08-14T20:25:45.344Z,29.20
2022-08-14T20:28:32.082Z,29.93
2022-08-14T20:31:15.779Z,28.97
2022-08-14T20:34:06.645Z,28.70
2022-08-14T20:36:40.040Z,31.23
2022-08-14T20:39:15.236Z,31.63
2022-08-14T20:41:49.833Z,28.57
2022-08-14T20:44:40.640Z,29.10
2022-08-14T20:47:15.018Z,31.93
2022-08-14T20:49:43.649Z,28.53
2022-08-14T20:52:18.975Z,30.67
2022-08-14T20:54:51.872Z,29.43
2022-08-14T20:57:21.166Z,29.73
2022-08-14T20:59:52.904Z,29.17
2022-08-14T21:02:38.481Z,31.40
2022-08-14T21:05:22.571Z,31.20
2022-08-14T21:08:09.667Z,30.60
2022-08-14T21:10:53.158Z,29.50
2022-08-14T21:13:27.277Z,31.57
2022-08-14T21:16:33.336Z,30.90
2022-08-14T21:19:05.834Z,28.87
2022-08-14T21:21:41.755Z,27.83
2022-08-14T21:24:38.765Z,28.33
2022-08-14T21:27:12.708Z,29.43
2022-08-14T21:29:55.231Z,27.73
2022-08-14T21:32:47.034Z,27.60
2022-08-14T21:35:22.612Z,29.27
2022-08-14T21:37:52.504Z,28.13
2022-08-14T21:40:40.399Z,29.77
2022-08-14T21:43:17.313Z,28.30
2022-08-14T21:45:53.309Z,27.40
2022-08-14T21:48:25.047Z,28.47
2022-08-14T21:51:02.007Z,27.97
2022-08-14T21:53:58.852Z,27.97
2022-08-14T21:56:38.914Z,30.67
2022-08-14T21:59:17.760Z,28.63
2022-08-14T22:02:00.748Z,27.20
2022-08-14T22:04:40.137Z,28.03
2022-08-14T22:07:16.886Z,28.77
2022-08-14T22:09:55.365Z,27.03
2022-08-14T22:12:47.326Z,27.90
2022-08-14T22:15:16.754Z,30.60
2022-08-14T22:17:45.703Z,28.83
2022-08-14T22:20:21.976Z,28.33
2022-08-14T22:22:56.171Z,28.23
2022-08-14T22:25:33.114Z,30.40
2022-08-14T22:28:05.709Z,27.63
2022-08-14T22:30:35.617Z,29.27
2022-08-14T22:33:06.580Z,29.23
2022-08-14T22:35:39.070Z,28.70
2022-08-14T22:38:35.624Z,30.30
2022-08-14T22:41:25.307Z,27.00
2022-08-14T22:43:47.584Z,26.97
2022-08-14T22:46:20.396Z,28.23
2022-08-14T22:48:51.012Z,26.13
2022-08-14T22:51:23.769Z,28.13
2022-08-14T22:53:55.627Z,26.70
2022-08-14T22:56:30.304Z,27.30
2022-08-14T22:59:01.310Z,29.33
2022-08-14T23:01:56.811Z,28.30
2022-08-14T23:04:35.711Z,27.67
2022-08-14T23:07:22.099Z,27.03
2022-08-14T23:09:57.240Z,26.77
2022-08-14T23:12:34.792Z,28.47
2022-08-14T23:15:04.015Z,26.70
2022-08-14T23:17:40.223Z,27.17
2022-08-14T23:20:19.156Z,28.07
2022-08-14T23:22:51.734Z,26.10
2022-08-14T23:25:45.790Z,27.60
2022-08-14T23:28:34.393Z,27.67
2022-08-14T23:31:09.906Z,27.87
2022-08-14T23:33:41.922Z,27.00
2022-08-14T23:36:32.492Z,27.10
2022-08-14T23:39:10.211Z,27.10
2022-08-14T23:41:46.913Z,27.40
2022-08-14T23:44:24.507Z,28.10
2022-08-14T23:46:57.139Z,26.37
2022-08-14T23:49:56.854Z,27.20
2022-08-14T23:52:50.456Z,27.47
2022-08-14T23:55:14.134Z,27.83
2022-08-14T23:57:58.243Z,25.80
